QTR1187 OEAB-OTHH
Flight info
| Callsign | QTR1187 |
|---|---|
| Flight time | N/A |
| Altitude | 29000 |
| Route | DUMSI H75 IRBAB Q313 UMRAN H76 KSA H744 KINIB Z511 GISRA L681 ORLEK |
| Aircraft | A20N/M-SDE2E3FGHIRWXY/LB1 |
Departure
| Time | 2026-05-05 20:16 |
|---|---|
| Airport | Abha International Airport (OEAB) |
Arrival
| Time | N/A |
|---|---|
| Airport | Hamad International Airport (OTHH) |
| Time | Latitude | Longitude | Altitude | Speed | Heading |
|---|---|---|---|---|---|
| 2026-05-05 20:04 | 18.23499 | 42.65867 | 6883 ft | 0 kts | 219° |
| 2026-05-05 20:09 | 18.23502 | 42.65870 | 6883 ft | 2 kts | 217° |
| 2026-05-05 20:09 | 18.23515 | 42.65880 | 6883 ft | 2 kts | 218° |
| 2026-05-05 20:10 | 18.23528 | 42.65891 | 6883 ft | 2 kts | 219° |
| 2026-05-05 20:10 | 18.23541 | 42.65902 | 6884 ft | 2 kts | 220° |
| 2026-05-05 20:10 | 18.23554 | 42.65914 | 6884 ft | 2 kts | 221° |
| 2026-05-05 20:10 | 18.23566 | 42.65925 | 6884 ft | 2 kts | 178° |
| 2026-05-05 20:11 | 18.23578 | 42.65916 | 6884 ft | 1 kts | 128° |
| 2026-05-05 20:11 | 18.23580 | 42.65914 | 6884 ft | 0 kts | 129° |
| 2026-05-05 20:12 | 18.23574 | 42.65922 | 6884 ft | 4 kts | 129° |
| 2026-05-05 20:12 | 18.23540 | 42.65964 | 6883 ft | 10 kts | 131° |
| 2026-05-05 20:13 | 18.23484 | 42.66028 | 6883 ft | 13 kts | 133° |
| 2026-05-05 20:13 | 18.23423 | 42.66108 | 6883 ft | 15 kts | 127° |
| 2026-05-05 20:13 | 18.23356 | 42.66197 | 6883 ft | 16 kts | 129° |
| 2026-05-05 20:13 | 18.23282 | 42.66292 | 6883 ft | 17 kts | 130° |
| 2026-05-05 20:14 | 18.23201 | 42.66391 | 6883 ft | 18 kts | 131° |
| 2026-05-05 20:14 | 18.23122 | 42.66501 | 6883 ft | 19 kts | 129° |
| 2026-05-05 20:14 | 18.23038 | 42.66612 | 6883 ft | 20 kts | 128° |
| 2026-05-05 20:14 | 18.23023 | 42.66747 | 6883 ft | 19 kts | 90° |
| 2026-05-05 20:15 | 18.23081 | 42.66845 | 6882 ft | 16 kts | 40° |
| 2026-05-05 20:15 | 18.23129 | 42.66857 | 6883 ft | 2 kts | 281° |
| 2026-05-05 20:15 | 18.23136 | 42.66833 | 6882 ft | 5 kts | 303° |
| 2026-05-05 20:15 | 18.23260 | 42.66667 | 6881 ft | 69 kts | 310° |
| 2026-05-05 20:16 | 18.23732 | 42.66057 | 6883 ft | 142 kts | 309° |
| 2026-05-05 20:16 | 18.24466 | 42.65101 | 7047 ft | 185 kts | 308° |
| 2026-05-05 20:16 | 18.25281 | 42.64028 | 7856 ft | 182 kts | 308° |
| 2026-05-05 20:16 | 18.26056 | 42.62995 | 8523 ft | 180 kts | 309° |
| 2026-05-05 20:17 | 18.26870 | 42.61924 | 8905 ft | 197 kts | 309° |
| 2026-05-05 20:17 | 18.27772 | 42.60744 | 9195 ft | 217 kts | 309° |
| 2026-05-05 20:17 | 18.28771 | 42.59443 | 9459 ft | 239 kts | 309° |
| 2026-05-05 20:17 | 18.29867 | 42.58016 | 9638 ft | 264 kts | 309° |
| 2026-05-05 20:18 | 18.31074 | 42.56444 | 9879 ft | 288 kts | 309° |
| 2026-05-05 20:18 | 18.32372 | 42.54751 | 9955 ft | 302 kts | 309° |
| 2026-05-05 20:18 | 18.33681 | 42.53046 | 9990 ft | 304 kts | 309° |
| 2026-05-05 20:18 | 18.35036 | 42.51279 | 10067 ft | 319 kts | 309° |
| 2026-05-05 20:19 | 18.36483 | 42.49395 | 10253 ft | 342 kts | 309° |
| 2026-05-05 20:19 | 18.38001 | 42.47415 | 10748 ft | 350 kts | 309° |
| 2026-05-05 20:19 | 18.39544 | 42.45402 | 11448 ft | 354 kts | 309° |
| 2026-05-05 20:19 | 18.41100 | 42.43382 | 12168 ft | 357 kts | 310° |
| 2026-05-05 20:20 | 18.42989 | 42.41691 | 12848 ft | 360 kts | 330° |
| 2026-05-05 20:20 | 18.45341 | 42.40771 | 13541 ft | 363 kts | 351° |
| 2026-05-05 20:20 | 18.47865 | 42.40741 | 14202 ft | 366 kts | 10° |
| 2026-05-05 20:20 | 18.50313 | 42.41498 | 14817 ft | 370 kts | 21° |
| 2026-05-05 20:21 | 18.52714 | 42.42523 | 15428 ft | 374 kts | 23° |
| 2026-05-05 20:21 | 18.55130 | 42.43586 | 16065 ft | 378 kts | 23° |
| 2026-05-05 20:21 | 18.57556 | 42.44615 | 16671 ft | 383 kts | 22° |
| 2026-05-05 20:21 | 18.60054 | 42.45632 | 17286 ft | 387 kts | 21° |
| 2026-05-05 20:22 | 18.62594 | 42.46637 | 17886 ft | 392 kts | 21° |
| 2026-05-05 20:22 | 18.65165 | 42.47642 | 18472 ft | 397 kts | 21° |
| 2026-05-05 20:22 | 18.67769 | 42.48656 | 19004 ft | 400 kts | 20° |
| 2026-05-05 20:22 | 18.70396 | 42.49679 | 19539 ft | 404 kts | 20° |
| 2026-05-05 20:23 | 18.73044 | 42.50711 | 20050 ft | 408 kts | 20° |
| 2026-05-05 20:23 | 18.75718 | 42.51753 | 20581 ft | 411 kts | 20° |
| 2026-05-05 20:23 | 18.78413 | 42.52805 | 21083 ft | 415 kts | 20° |
| 2026-05-05 20:23 | 18.81134 | 42.53867 | 21585 ft | 419 kts | 20° |
| 2026-05-05 20:24 | 18.83880 | 42.54939 | 22087 ft | 422 kts | 20° |
| 2026-05-05 20:24 | 18.86652 | 42.56022 | 22578 ft | 426 kts | 20° |
| 2026-05-05 20:24 | 18.89449 | 42.57115 | 23039 ft | 430 kts | 20° |
| 2026-05-05 20:24 | 18.92267 | 42.58218 | 23525 ft | 434 kts | 20° |
| 2026-05-05 20:25 | 18.95110 | 42.59330 | 23950 ft | 437 kts | 19° |
| 2026-05-05 20:25 | 18.97972 | 42.60450 | 24357 ft | 440 kts | 19° |
| 2026-05-05 20:25 | 19.00848 | 42.61576 | 24781 ft | 442 kts | 19° |
| 2026-05-05 20:25 | 19.03739 | 42.62706 | 25165 ft | 445 kts | 19° |
| 2026-05-05 20:26 | 19.06716 | 42.63609 | 25550 ft | 446 kts | 11° |
| 2026-05-05 20:26 | 19.09793 | 42.64091 | 25928 ft | 447 kts | 3° |
| 2026-05-05 20:26 | 19.12908 | 42.64157 | 26303 ft | 448 kts | 357° |
| 2026-05-05 20:26 | 19.16038 | 42.64084 | 26669 ft | 451 kts | 357° |
| 2026-05-05 20:27 | 19.19185 | 42.64023 | 27034 ft | 453 kts | 357° |
| 2026-05-05 20:27 | 19.22345 | 42.63965 | 27389 ft | 456 kts | 357° |
| 2026-05-05 20:27 | 19.25526 | 42.63907 | 27733 ft | 458 kts | 357° |
| 2026-05-05 20:27 | 19.28728 | 42.63847 | 28075 ft | 461 kts | 357° |
| 2026-05-05 20:28 | 19.31941 | 42.63786 | 28406 ft | 463 kts | 357° |
| 2026-05-05 20:28 | 19.34078 | 42.63745 | 28618 ft | 465 kts | 357° |
| 2026-05-05 20:28 | 19.38381 | 42.63662 | 29011 ft | 468 kts | 356° |
| 2026-05-05 20:29 | 19.44908 | 42.63772 | 29087 ft | 471 kts | 5° |
| 2026-05-05 20:29 | 19.51252 | 42.65605 | 29084 ft | 476 kts | 22° |
| 2026-05-05 20:30 | 19.56283 | 42.67971 | 29082 ft | 476 kts | 22° |
| 2026-05-05 20:30 | 19.63377 | 42.71281 | 29078 ft | 476 kts | 22° |
| 2026-05-05 20:31 | 19.69447 | 42.74117 | 29077 ft | 477 kts | 22° |
| 2026-05-05 20:31 | 19.75525 | 42.76962 | 29075 ft | 477 kts | 22° |
| 2026-05-05 20:32 | 19.81564 | 42.79791 | 29070 ft | 478 kts | 22° |
| 2026-05-05 20:32 | 19.87651 | 42.82645 | 29065 ft | 478 kts | 22° |
| 2026-05-05 20:33 | 19.93754 | 42.85509 | 29065 ft | 479 kts | 22° |
| 2026-05-05 20:33 | 19.99857 | 42.88375 | 29056 ft | 480 kts | 22° |
| 2026-05-05 20:34 | 20.04930 | 42.90759 | 29041 ft | 480 kts | 22° |
| 2026-05-05 20:34 | 20.12101 | 42.94079 | 29023 ft | 481 kts | 21° |
| 2026-05-05 20:35 | 20.17204 | 42.96438 | 29012 ft | 481 kts | 21° |
| 2026-05-05 20:35 | 20.23247 | 42.99514 | 28999 ft | 483 kts | 30° |
| 2026-05-05 20:36 | 20.28653 | 43.03799 | 28993 ft | 485 kts | 38° |
| 2026-05-05 20:36 | 20.33919 | 43.08287 | 28981 ft | 485 kts | 37° |
| 2026-05-05 20:37 | 20.39197 | 43.12782 | 28977 ft | 485 kts | 37° |
| 2026-05-05 20:37 | 20.44468 | 43.17282 | 28965 ft | 485 kts | 37° |
| 2026-05-05 20:38 | 20.49731 | 43.21781 | 28959 ft | 485 kts | 37° |
| 2026-05-05 20:38 | 20.54961 | 43.26256 | 28951 ft | 485 kts | 37° |
| 2026-05-05 20:39 | 20.60223 | 43.30762 | 28944 ft | 485 kts | 37° |
| 2026-05-05 20:39 | 20.65489 | 43.35276 | 28937 ft | 485 kts | 37° |
| 2026-05-05 20:40 | 20.70745 | 43.39786 | 28930 ft | 485 kts | 37° |
| 2026-05-05 20:40 | 20.76006 | 43.44303 | 28921 ft | 485 kts | 37° |
| 2026-05-05 20:41 | 20.81260 | 43.48820 | 28920 ft | 485 kts | 37° |
| 2026-05-05 20:41 | 20.86520 | 43.53344 | 28913 ft | 485 kts | 37° |
| 2026-05-05 20:42 | 20.91775 | 43.57869 | 28908 ft | 485 kts | 37° |
| 2026-05-05 20:42 | 20.97038 | 43.62405 | 28905 ft | 485 kts | 37° |
| 2026-05-05 20:43 | 21.02292 | 43.66937 | 28902 ft | 486 kts | 37° |
| 2026-05-05 20:43 | 21.07528 | 43.71458 | 28898 ft | 486 kts | 37° |
| 2026-05-05 20:44 | 21.12788 | 43.76004 | 28897 ft | 486 kts | 37° |
| 2026-05-05 20:44 | 21.18104 | 43.80482 | 28896 ft | 485 kts | 32° |
| 2026-05-05 20:45 | 21.26504 | 43.86583 | 28893 ft | 486 kts | 32° |
| 2026-05-05 20:45 | 21.32070 | 43.90642 | 28897 ft | 486 kts | 32° |
| 2026-05-05 20:46 | 21.37665 | 43.94726 | 28897 ft | 487 kts | 32° |
| 2026-05-05 20:46 | 21.43272 | 43.98822 | 28898 ft | 488 kts | 32° |
| 2026-05-05 20:47 | 21.48885 | 44.02927 | 28895 ft | 488 kts | 32° |
| 2026-05-05 20:47 | 21.54498 | 44.07035 | 28896 ft | 488 kts | 32° |
| 2026-05-05 20:48 | 21.60113 | 44.11148 | 28892 ft | 488 kts | 32° |
| 2026-05-05 20:48 | 21.65731 | 44.15269 | 28892 ft | 489 kts | 32° |
| 2026-05-05 20:49 | 21.71349 | 44.19392 | 28884 ft | 489 kts | 32° |
| 2026-05-05 20:49 | 21.76934 | 44.23496 | 28883 ft | 489 kts | 32° |
| 2026-05-05 20:50 | 21.82555 | 44.27630 | 28880 ft | 488 kts | 32° |
| 2026-05-05 20:50 | 21.88165 | 44.31760 | 28874 ft | 488 kts | 32° |
| 2026-05-05 20:51 | 21.93775 | 44.35894 | 28875 ft | 489 kts | 32° |
| 2026-05-05 20:51 | 21.99386 | 44.40033 | 28875 ft | 488 kts | 32° |
| 2026-05-05 20:52 | 22.04999 | 44.44176 | 28869 ft | 488 kts | 32° |
| 2026-05-05 20:52 | 22.10571 | 44.48295 | 28869 ft | 488 kts | 32° |
| 2026-05-05 20:53 | 22.16172 | 44.52440 | 28870 ft | 488 kts | 32° |
| 2026-05-05 20:53 | 22.21782 | 44.56594 | 28867 ft | 488 kts | 32° |
| 2026-05-05 20:54 | 22.27389 | 44.60751 | 28866 ft | 488 kts | 32° |
| 2026-05-05 20:54 | 22.32985 | 44.64903 | 28872 ft | 488 kts | 32° |
| 2026-05-05 20:55 | 22.38588 | 44.69065 | 28874 ft | 489 kts | 32° |
| 2026-05-05 20:55 | 22.44198 | 44.73236 | 28875 ft | 489 kts | 32° |
| 2026-05-05 20:56 | 22.49801 | 44.77407 | 28874 ft | 489 kts | 32° |
| 2026-05-05 20:56 | 22.55376 | 44.81560 | 28873 ft | 489 kts | 32° |
| 2026-05-05 20:57 | 22.60982 | 44.85742 | 28872 ft | 489 kts | 32° |
| 2026-05-05 20:57 | 22.66589 | 44.89927 | 28871 ft | 489 kts | 32° |
| 2026-05-05 20:58 | 22.72197 | 44.94118 | 28872 ft | 489 kts | 32° |
| 2026-05-05 20:58 | 22.77800 | 44.98309 | 28870 ft | 489 kts | 32° |
| 2026-05-05 20:59 | 22.83404 | 45.02506 | 28872 ft | 490 kts | 32° |
| 2026-05-05 20:59 | 22.89005 | 45.06704 | 28876 ft | 489 kts | 32° |
| 2026-05-05 21:00 | 22.94568 | 45.10878 | 28874 ft | 490 kts | 32° |
| 2026-05-05 21:00 | 23.00175 | 45.15091 | 28872 ft | 490 kts | 32° |
| 2026-05-05 21:01 | 23.05788 | 45.19313 | 28875 ft | 491 kts | 32° |
| 2026-05-05 21:01 | 23.11410 | 45.23546 | 28881 ft | 491 kts | 32° |
| 2026-05-05 21:02 | 23.17026 | 45.27778 | 28881 ft | 491 kts | 32° |
| 2026-05-05 21:02 | 23.22653 | 45.32024 | 28884 ft | 491 kts | 32° |
| 2026-05-05 21:03 | 23.28264 | 45.36263 | 28888 ft | 491 kts | 33° |
| 2026-05-05 21:03 | 23.33836 | 45.40483 | 28887 ft | 492 kts | 33° |
| 2026-05-05 21:04 | 23.39454 | 45.44741 | 28893 ft | 492 kts | 33° |
| 2026-05-05 21:04 | 23.45079 | 45.49010 | 28898 ft | 493 kts | 33° |
| 2026-05-05 21:05 | 23.50711 | 45.53287 | 28896 ft | 494 kts | 33° |
| 2026-05-05 21:05 | 23.56349 | 45.57574 | 28883 ft | 495 kts | 32° |
| 2026-05-05 21:06 | 23.62002 | 45.61877 | 28880 ft | 495 kts | 32° |
| 2026-05-05 21:06 | 23.64828 | 45.64029 | 28702 ft | 495 kts | 33° |
| 2026-05-05 21:06 | 23.67643 | 45.66176 | 28445 ft | 492 kts | 33° |
| 2026-05-05 21:07 | 23.70443 | 45.68312 | 28189 ft | 489 kts | 33° |
| 2026-05-05 21:07 | 23.73220 | 45.70431 | 27934 ft | 487 kts | 33° |
| 2026-05-05 21:07 | 23.75991 | 45.72548 | 27681 ft | 485 kts | 33° |
| 2026-05-05 21:07 | 23.78754 | 45.74658 | 27431 ft | 483 kts | 33° |
| 2026-05-05 21:08 | 23.81500 | 45.76758 | 27196 ft | 480 kts | 33° |
| 2026-05-05 21:08 | 23.84230 | 45.78846 | 26944 ft | 478 kts | 33° |
| 2026-05-05 21:08 | 23.86952 | 45.80929 | 26509 ft | 478 kts | 33° |
| 2026-05-05 21:08 | 23.89673 | 45.83011 | 25935 ft | 477 kts | 33° |
| 2026-05-05 21:09 | 23.92386 | 45.85088 | 25361 ft | 473 kts | 33° |
| 2026-05-05 21:09 | 23.95072 | 45.87146 | 24784 ft | 469 kts | 33° |
| 2026-05-05 21:09 | 23.97713 | 45.89170 | 24209 ft | 466 kts | 33° |
| 2026-05-05 21:09 | 24.00353 | 45.91194 | 23631 ft | 462 kts | 34° |
| 2026-05-05 21:10 | 24.02975 | 45.93206 | 22978 ft | 459 kts | 34° |
| 2026-05-05 21:10 | 24.05568 | 45.95198 | 22469 ft | 451 kts | 34° |
| 2026-05-05 21:10 | 24.08118 | 45.97157 | 21910 ft | 445 kts | 34° |
| 2026-05-05 21:10 | 24.10637 | 45.99094 | 21365 ft | 439 kts | 34° |
| 2026-05-05 21:11 | 24.13127 | 46.01009 | 20820 ft | 434 kts | 34° |
| 2026-05-05 21:11 | 24.15590 | 46.02904 | 20280 ft | 429 kts | 34° |
| 2026-05-05 21:11 | 24.18021 | 46.04776 | 19740 ft | 424 kts | 34° |
| 2026-05-05 21:11 | 24.20428 | 46.06630 | 19191 ft | 420 kts | 34° |
| 2026-05-05 21:12 | 24.22773 | 46.08437 | 18647 ft | 416 kts | 34° |
| 2026-05-05 21:12 | 24.25131 | 46.10255 | 18104 ft | 412 kts | 34° |
| 2026-05-05 21:12 | 24.27459 | 46.12050 | 17594 ft | 406 kts | 34° |
| 2026-05-05 21:12 | 24.29750 | 46.13819 | 17081 ft | 400 kts | 34° |
| 2026-05-05 21:13 | 24.32014 | 46.15566 | 16569 ft | 395 kts | 34° |
| 2026-05-05 21:13 | 24.34249 | 46.17293 | 16065 ft | 390 kts | 34° |
| 2026-05-05 21:13 | 24.36454 | 46.18997 | 15570 ft | 386 kts | 34° |
| 2026-05-05 21:13 | 24.38638 | 46.20685 | 15075 ft | 382 kts | 34° |
| 2026-05-05 21:14 | 24.40800 | 46.22357 | 14595 ft | 378 kts | 34° |
| 2026-05-05 21:14 | 24.42936 | 46.24009 | 14095 ft | 375 kts | 34° |
| 2026-05-05 21:14 | 24.45052 | 46.25648 | 13711 ft | 368 kts | 34° |
| 2026-05-05 21:14 | 24.47132 | 46.27259 | 13225 ft | 364 kts | 34° |
| 2026-05-05 21:15 | 24.49166 | 46.28835 | 12766 ft | 359 kts | 34° |
| 2026-05-05 21:15 | 24.51197 | 46.30409 | 12310 ft | 355 kts | 34° |
| 2026-05-05 21:15 | 24.53204 | 46.31965 | 11859 ft | 352 kts | 34° |
| 2026-05-05 21:15 | 24.55192 | 46.33507 | 11407 ft | 348 kts | 34° |
| 2026-05-05 21:16 | 24.57160 | 46.35034 | 10966 ft | 345 kts | 35° |
| 2026-05-05 21:16 | 24.59117 | 46.36553 | 10526 ft | 342 kts | 34° |
| 2026-05-05 21:16 | 24.60393 | 46.37543 | 10395 ft | 334 kts | 35° |
| 2026-05-05 21:16 | 24.62868 | 46.39466 | 10236 ft | 316 kts | 35° |
| 2026-05-05 21:17 | 24.64635 | 46.40840 | 9998 ft | 308 kts | 35° |
| 2026-05-05 21:17 | 24.66362 | 46.42183 | 9828 ft | 299 kts | 35° |
| 2026-05-05 21:17 | 24.67491 | 46.43061 | 9742 ft | 301 kts | 35° |
| 2026-05-05 21:17 | 24.69779 | 46.44840 | 9444 ft | 301 kts | 35° |
| 2026-05-05 21:18 | 24.71450 | 46.46141 | 9324 ft | 286 kts | 35° |
| 2026-05-05 21:18 | 24.72525 | 46.46978 | 9225 ft | 275 kts | 35° |
| 2026-05-05 21:18 | 24.74036 | 46.48155 | 9077 ft | 258 kts | 35° |
| 2026-05-05 21:18 | 24.75448 | 46.49256 | 8807 ft | 249 kts | 35° |
| 2026-05-05 21:19 | 24.76854 | 46.50351 | 8370 ft | 247 kts | 35° |
| 2026-05-05 21:19 | 24.78251 | 46.51442 | 7945 ft | 245 kts | 36° |
| 2026-05-05 21:19 | 24.79373 | 46.52825 | 7492 ft | 244 kts | 63° |
| 2026-05-05 21:19 | 24.79781 | 46.54596 | 7223 ft | 235 kts | 90° |
| 2026-05-05 21:20 | 24.79474 | 46.56299 | 7119 ft | 223 kts | 114° |
| 2026-05-05 21:20 | 24.78820 | 46.57816 | 6902 ft | 218 kts | 113° |
| 2026-05-05 21:20 | 24.78265 | 46.59363 | 6633 ft | 217 kts | 109° |
| 2026-05-05 21:20 | 24.77822 | 46.60945 | 6363 ft | 216 kts | 104° |
| 2026-05-05 21:21 | 24.77488 | 46.62555 | 6091 ft | 214 kts | 100° |
| 2026-05-05 21:21 | 24.77267 | 46.64150 | 5987 ft | 210 kts | 96° |
| 2026-05-05 21:21 | 24.77145 | 46.65787 | 5994 ft | 215 kts | 91° |
| 2026-05-05 21:21 | 24.77128 | 46.67409 | 5996 ft | 214 kts | 88° |
| 2026-05-05 21:22 | 24.77217 | 46.69045 | 5994 ft | 214 kts | 83° |
| 2026-05-05 21:22 | 24.77402 | 46.70585 | 5995 ft | 214 kts | 79° |
| 2026-05-05 21:22 | 24.77680 | 46.72113 | 5927 ft | 216 kts | 76° |
| 2026-05-05 21:22 | 24.78072 | 46.73688 | 5774 ft | 212 kts | 72° |
| 2026-05-05 21:23 | 24.78561 | 46.75219 | 5489 ft | 211 kts | 68° |
| 2026-05-05 21:23 | 24.79145 | 46.76704 | 5213 ft | 211 kts | 63° |
| 2026-05-05 21:23 | 24.79830 | 46.78128 | 4947 ft | 210 kts | 54° |
| 2026-05-05 21:23 | 24.80905 | 46.79154 | 4755 ft | 208 kts | 21° |
| 2026-05-05 21:24 | 24.82313 | 46.79352 | 4570 ft | 201 kts | 353° |
| 2026-05-05 21:24 | 24.83609 | 46.78962 | 4329 ft | 190 kts | 338° |
| 2026-05-05 21:24 | 24.84760 | 46.78353 | 4090 ft | 173 kts | 332° |
| 2026-05-05 21:24 | 24.85752 | 46.77750 | 3896 ft | 156 kts | 331° |
| 2026-05-05 21:25 | 24.86651 | 46.77186 | 3718 ft | 142 kts | 331° |
| 2026-05-05 21:25 | 24.87507 | 46.76645 | 3532 ft | 143 kts | 331° |
| 2026-05-05 21:25 | 24.88363 | 46.76103 | 3370 ft | 141 kts | 332° |
| 2026-05-05 21:25 | 24.89214 | 46.75564 | 3194 ft | 141 kts | 332° |
| 2026-05-05 21:26 | 24.90064 | 46.75025 | 3020 ft | 141 kts | 332° |
| 2026-05-05 21:26 | 24.90887 | 46.74503 | 2851 ft | 140 kts | 332° |
| 2026-05-05 21:26 | 24.91740 | 46.73962 | 2672 ft | 140 kts | 331° |
| 2026-05-05 21:26 | 24.92573 | 46.73424 | 2416 ft | 138 kts | 331° |
| 2026-05-05 21:27 | 24.93386 | 46.72908 | 2267 ft | 135 kts | 333° |
| 2026-05-05 21:27 | 24.94205 | 46.72391 | 2128 ft | 137 kts | 332° |
| 2026-05-05 21:27 | 24.95004 | 46.71897 | 2036 ft | 114 kts | 332° |
| 2026-05-05 21:27 | 24.95518 | 46.71572 | 2031 ft | 56 kts | 327° |
| 2026-05-05 21:28 | 24.95765 | 46.71416 | 2036 ft | 37 kts | 334° |
| 2026-05-05 21:28 | 24.95950 | 46.71242 | 2045 ft | 35 kts | 302° |
| 2026-05-05 21:28 | 24.96003 | 46.71084 | 2036 ft | 16 kts | 273° |
| 2026-05-05 21:28 | 24.95964 | 46.70962 | 2043 ft | 18 kts | 244° |
| 2026-05-05 21:29 | 24.95896 | 46.70835 | 2040 ft | 20 kts | 239° |
| 2026-05-05 21:29 | 24.95803 | 46.70733 | 2044 ft | 14 kts | 180° |
| 2026-05-05 21:29 | 24.95760 | 46.70721 | 2038 ft | 4 kts | 253° |
| 2026-05-05 21:29 | 24.95741 | 46.70688 | 2043 ft | 7 kts | 240° |
| 2026-05-05 21:30 | 24.95734 | 46.70676 | 2040 ft | 0 kts | 240° |
| 2026-05-05 21:30 | 24.95731 | 46.70671 | 2039 ft | 2 kts | 240° |
| 2026-05-05 21:30 | 24.95717 | 46.70662 | 2041 ft | 4 kts | 204° |
| 2026-05-05 21:30 | 24.95683 | 46.70646 | 2042 ft | 7 kts | 204° |
| 2026-05-05 21:31 | 24.95674 | 46.70641 | 2037 ft | 0 kts | 204° |